Mid Ohio Valley Regional Airport
KPKB : now visible

Airfield :











YOU CAN JOIN US ON...

 
LOGIN :

Register | Disclaimer

   EN    FR    IT 

 









Legend :    VFR   Marginal VFR   IFR   Intensive IFR   Very Intensive IFR
Visi :
Ceiling :
>= 8 km
>= 3000ft
5 to 8 km
1000 to 3000 ft
1500m to 5 km
500 to 1000 ft
800 to 1500m
200 to 500 ft
< 800m
< 200 ft
Symbols :   Thunderstorms  Fog  Heavy snow  Heavy precipitations  Wind > 20 kt






- Airport Elevation : 858 ft
- IATA code : PKB


KPKB - Mid Ohio Valley Regional

CURRENT METAR :
  • 161835Z 00000KT 10SM SCT017 24/19 A3013 RMK AO2 T02440194

EXPIRED METARs :
  • 161753Z 00000KT 10SM BKN015 24/19 A3014 RMK AO2 SLP201 T02440189 10250 20189 58003
  • 161745Z 00000KT 10SM BKN015 23/19 A3015 RMK AO2 T02330189
  • 161721Z 00000KT 10SM BKN012 23/19 A3015 RMK AO2 T02330189
  • 161653Z 00000KT 10SM OVC008 22/19 A3015 RMK AO2 CIG 007V012 SLP204 T02220189
  • 161553Z 11005KT 3SM BR OVC005 21/18 A3016 RMK AO2 SLP207 T02060183

TAF KPKB
Valid from the 16 at 18:00 until the 17 at 18:00 UTC


161739Z 1618/1718 00000KT P6SM BKN012
FM161830 00000KT P6SM SCT035
FM170900 00000KT 6SM BR FEW035
FM171200 00000KT P6SM FEW120
FM171600 VRB03KT P6SM FEW026
KZID FIR / North America



MET'MAP, your aeronautical weather chart ! - Copyright ORBIFLY December 2007 - Disclaimer

ORBIFLY MET'MAP TEAM :

Programming & Development : Alexandra Zaïnal
Concept & original design : Baudouin d'Aumeries
Assistance for programming : Marc-Olivier Méhu
Technical & hardware support : Manuel Goepfert

Contact : metmap@orbifly.com




SOURCES & CREDITS :

   NOAA       Earth
Advisory